Time;durP1;ratioP1;P1;durP2;ratioP2;P2;SDS_P1;SDS_P2;PMS_P1;PMS_P2;Temp;Humidity;BMP_temperature;BMP_pressure;BME280_temperature;BME280_humidity;BME280_pressure;Samples;Min_cycle;Max_cycle;Signal;HPM_P1;HPM_P2
2021/10/17 00:00:32;;;;;;;67.17;12.77;;;;;;;;;;5086176;28;20451;-94
2021/10/17 00:02:58;;;;;;;67.30;12.70;;;;;;;;;;5083314;28;20450;-94
2021/10/17 00:05:26;;;;;;;68.17;12.80;;;;;;;;;;5085935;28;20451;-94
2021/10/17 00:07:54;;;;;;;68.43;13.20;;;;;;;;;;5086581;28;20548;-94
2021/10/17 00:10:24;;;;;;;69.70;13.13;;;;;;;;;;5068982;28;20513;-94
2021/10/17 00:12:51;;;;;;;67.67;12.07;;;;;;;;;;5084418;28;20488;-95
2021/10/17 00:15:19;;;;;;;66.60;12.33;;;;;;;;;;5084292;28;20451;-95
2021/10/17 00:17:46;;;;;;;68.30;13.50;;;;;;;;;;5063246;28;20451;-94
2021/10/17 00:20:13;;;;;;;67.17;13.00;;;;;;;;;;5063251;28;20455;-94
2021/10/17 00:22:40;;;;;;;68.63;12.87;;;;;;;;;;5065405;28;20934;-94
2021/10/17 00:25:09;;;;;;;66.90;12.87;;;;;;;;;;5095891;28;20524;-94
2021/10/17 00:27:35;;;;;;;67.27;12.83;;;;;;;;;;5088015;28;20495;-95
2021/10/17 00:30:02;;;;;;;67.03;12.53;;;;;;;;;;5085215;28;20471;-94
2021/10/17 00:32:28;;;;;;;67.87;13.63;;;;;;;;;;5085221;28;20471;-93
2021/10/17 00:34:55;;;;;;;66.97;12.33;;;;;;;;;;5086052;28;20452;-94
2021/10/17 00:37:21;;;;;;;67.93;13.37;;;;;;;;;;5084951;28;20867;-94
2021/10/17 00:39:48;;;;;;;67.70;12.47;;;;;;;;;;5094655;28;20504;-94
2021/10/17 00:42:17;;;;;;;67.47;12.50;;;;;;;;;;5091283;28;20457;-95
2021/10/17 00:44:54;;;;;;;67.57;13.50;;;;;;;;;;5085462;28;20444;-95
2021/10/17 00:47:20;;;;;;;67.37;12.70;;;;;;;;;;5085033;28;20484;-93
2021/10/17 00:49:48;;;;;;;68.37;12.80;;;;;;;;;;5086498;28;21115;-94
2021/10/17 00:52:14;;;;;;;67.53;12.73;;;;;;;;;;5084151;28;20523;-94
2021/10/17 00:54:42;;;;;;;70.33;13.00;;;;;;;;;;5097177;28;20446;-94
2021/10/17 00:57:09;;;;;;;70.27;13.40;;;;;;;;;;5085783;28;20447;-94
2021/10/17 00:59:36;;;;;;;67.90;12.57;;;;;;;;;;5085396;28;20447;-95
2021/10/17 01:02:03;;;;;;;70.30;13.33;;;;;;;;;;5082646;28;20451;-94
2021/10/17 01:04:31;;;;;;;70.30;13.53;;;;;;;;;;5081928;28;20455;-95
2021/10/17 01:06:58;;;;;;;70.60;13.40;;;;;;;;;;5084094;28;20497;-94
2021/10/17 01:09:24;;;;;;;68.67;12.60;;;;;;;;;;5093982;28;20512;-95
2021/10/17 01:11:51;;;;;;;69.07;13.40;;;;;;;;;;5095971;28;20453;-94
2021/10/17 01:14:19;;;;;;;68.80;13.37;;;;;;;;;;5085050;28;20456;-95
2021/10/17 01:16:47;;;;;;;70.90;13.70;;;;;;;;;;5083385;28;20455;-94
2021/10/17 01:19:19;;;;;;;67.77;12.90;;;;;;;;;;5083708;28;20489;-96
2021/10/17 01:21:48;;;;;;;75.90;15.80;;;;;;;;;;5084557;28;20448;-94
2021/10/17 01:24:15;;;;;;;67.70;12.57;;;;;;;;;;5093517;28;20542;-93
2021/10/17 01:26:42;;;;;;;68.57;13.30;;;;;;;;;;5097870;28;20447;-95
2021/10/17 01:29:09;;;;;;;71.40;13.50;;;;;;;;;;5083567;28;20506;-95
2021/10/17 01:31:36;;;;;;;71.83;12.83;;;;;;;;;;5084060;28;20447;-95
2021/10/17 01:34:03;;;;;;;69.60;13.07;;;;;;;;;;5084473;28;20509;-95
2021/10/17 01:36:30;;;;;;;69.00;13.90;;;;;;;;;;5083836;28;20446;-95
2021/10/17 01:38:58;;;;;;;66.90;12.63;;;;;;;;;;5088233;28;20476;-95
2021/10/17 01:41:24;;;;;;;70.03;12.90;;;;;;;;;;5082187;28;20456;-93
2021/10/17 01:43:51;;;;;;;69.30;13.00;;;;;;;;;;5074069;28;20474;-94
2021/10/17 01:46:17;;;;;;;69.90;12.97;;;;;;;;;;5076157;28;20443;-94
2021/10/17 01:48:45;;;;;;;69.90;12.40;;;;;;;;;;5079258;28;20488;-96
2021/10/17 01:51:12;;;;;;;69.07;13.10;;;;;;;;;;5078396;28;20447;-96
2021/10/17 01:53:38;;;;;;;72.10;12.87;;;;;;;;;;5087137;28;20451;-96
2021/10/17 01:56:06;;;;;;;68.83;12.37;;;;;;;;;;5078371;28;20443;-95
2021/10/17 01:58:33;;;;;;;73.00;13.70;;;;;;;;;;5054680;28;20520;-93
2021/10/17 02:01:02;;;;;;;69.37;13.07;;;;;;;;;;5058179;28;20448;-96
2021/10/17 02:03:29;;;;;;;69.17;12.77;;;;;;;;;;5082952;28;20447;-93
2021/10/17 02:05:55;;;;;;;69.60;13.10;;;;;;;;;;5080171;28;21201;-96
2021/10/17 02:08:22;;;;;;;70.37;13.27;;;;;;;;;;5077334;28;20489;-93
2021/10/17 02:10:48;;;;;;;69.80;13.40;;;;;;;;;;5093533;28;20472;-96
2021/10/17 02:13:23;;;;;;;69.87;12.87;;;;;;;;;;5082494;28;20460;-94
2021/10/17 02:15:50;;;;;;;70.97;13.43;;;;;;;;;;5080534;28;20463;-95
2021/10/17 02:18:17;;;;;;;69.50;13.00;;;;;;;;;;5079908;28;20460;-94
2021/10/17 02:20:43;;;;;;;71.03;14.00;;;;;;;;;;5082695;28;20450;-93
2021/10/17 02:23:10;;;;;;;69.90;13.20;;;;;;;;;;5081508;28;20498;-95
2021/10/17 02:25:37;;;;;;;68.80;12.53;;;;;;;;;;5082143;28;20466;-93
2021/10/17 02:28:03;;;;;;;73.30;13.77;;;;;;;;;;5082563;28;20492;-95
2021/10/17 02:30:31;;;;;;;70.97;12.87;;;;;;;;;;5082099;28;20982;-94
2021/10/17 02:32:58;;;;;;;73.37;13.70;;;;;;;;;;5081078;28;20452;-94
2021/10/17 02:35:24;;;;;;;70.27;13.10;;;;;;;;;;5083409;28;20448;-94
2021/10/17 02:37:51;;;;;;;69.03;13.37;;;;;;;;;;5082562;28;20955;-94
2021/10/17 02:40:17;;;;;;;69.40;13.50;;;;;;;;;;5081140;28;20500;-95
2021/10/17 02:42:44;;;;;;;68.50;12.70;;;;;;;;;;5082521;28;20463;-93
2021/10/17 02:45:10;;;;;;;69.20;13.90;;;;;;;;;;5080636;28;20453;-94
2021/10/17 02:47:38;;;;;;;70.67;13.77;;;;;;;;;;5081876;28;20876;-95
2021/10/17 02:50:05;;;;;;;71.83;14.00;;;;;;;;;;5082300;28;20452;-95
2021/10/17 02:52:32;;;;;;;74.30;13.80;;;;;;;;;;5080375;28;20508;-93
2021/10/17 02:54:58;;;;;;;70.30;14.47;;;;;;;;;;5079759;28;20821;-95
2021/10/17 02:57:25;;;;;;;69.77;13.47;;;;;;;;;;5083001;28;20586;-95
2021/10/17 02:59:51;;;;;;;71.60;13.87;;;;;;;;;;5082704;28;20463;-94
2021/10/17 03:02:18;;;;;;;69.50;13.83;;;;;;;;;;5082698;28;20442;-94
2021/10/17 03:04:46;;;;;;;71.00;14.40;;;;;;;;;;5082876;28;20457;-94
2021/10/17 03:07:12;;;;;;;70.27;14.23;;;;;;;;;;5081479;28;20440;-93
2021/10/17 03:09:39;;;;;;;69.70;13.70;;;;;;;;;;5081263;28;20629;-94
2021/10/17 03:12:06;;;;;;;69.17;14.03;;;;;;;;;;5081347;28;20517;-94
2021/10/17 03:14:32;;;;;;;71.40;14.70;;;;;;;;;;5081727;28;20448;-93
2021/10/17 03:16:59;;;;;;;70.10;14.20;;;;;;;;;;5081303;28;20452;-94
2021/10/17 03:19:25;;;;;;;71.10;14.03;;;;;;;;;;5080839;28;20446;-94
2021/10/17 03:21:53;;;;;;;69.43;14.30;;;;;;;;;;5082195;28;20441;-94
2021/10/17 03:24:20;;;;;;;69.97;13.73;;;;;;;;;;5081844;28;20488;-95
2021/10/17 03:26:46;;;;;;;69.20;13.50;;;;;;;;;;5080528;28;20476;-93
2021/10/17 03:29:13;;;;;;;71.70;14.60;;;;;;;;;;5080282;28;20709;-95
2021/10/17 03:31:39;;;;;;;70.40;13.83;;;;;;;;;;5081080;28;20462;-94
2021/10/17 03:34:06;;;;;;;69.10;14.30;;;;;;;;;;5081389;28;20437;-95
2021/10/17 03:36:32;;;;;;;71.77;14.70;;;;;;;;;;5082212;28;20481;-93
2021/10/17 03:39:00;;;;;;;72.97;15.60;;;;;;;;;;5081632;28;20498;-95
2021/10/17 03:41:27;;;;;;;73.07;15.70;;;;;;;;;;5082396;28;20445;-96
2021/10/17 03:43:54;;;;;;;73.27;15.00;;;;;;;;;;5082429;28;20457;-96
2021/10/17 03:46:20;;;;;;;75.00;15.00;;;;;;;;;;5081957;28;20447;-94
2021/10/17 03:48:47;;;;;;;73.93;15.27;;;;;;;;;;5081471;28;20488;-94
2021/10/17 03:51:14;;;;;;;72.10;15.47;;;;;;;;;;5081943;28;20808;-95
2021/10/17 03:53:40;;;;;;;71.47;15.13;;;;;;;;;;5081616;28;20452;-94
2021/10/17 03:56:08;;;;;;;76.33;16.70;;;;;;;;;;5081411;28;20438;-93
2021/10/17 03:58:35;;;;;;;74.23;16.37;;;;;;;;;;5079781;28;20462;-93
2021/10/17 04:01:01;;;;;;;75.03;15.50;;;;;;;;;;5079912;28;20479;-94
2021/10/17 04:03:28;;;;;;;80.27;16.23;;;;;;;;;;5078807;28;20474;-95
2021/10/17 04:05:54;;;;;;;78.10;16.10;;;;;;;;;;5079139;28;20453;-95
2021/10/17 04:08:21;;;;;;;73.83;15.90;;;;;;;;;;5078958;28;20495;-94
2021/10/17 04:10:47;;;;;;;72.90;15.77;;;;;;;;;;5079814;28;21137;-93
2021/10/17 04:13:16;;;;;;;75.20;15.30;;;;;;;;;;5083324;28;20502;-95
2021/10/17 04:15:42;;;;;;;75.70;16.60;;;;;;;;;;5084186;28;21036;-96
2021/10/17 04:18:10;;;;;;;71.20;15.13;;;;;;;;;;5084066;28;20444;-94
2021/10/17 04:20:36;;;;;;;75.50;15.50;;;;;;;;;;5084407;28;20448;-94
2021/10/17 04:23:03;;;;;;;73.50;15.53;;;;;;;;;;5085455;28;20475;-94
2021/10/17 04:25:30;;;;;;;74.27;16.20;;;;;;;;;;5085591;28;20447;-94
2021/10/17 04:27:56;;;;;;;75.10;15.90;;;;;;;;;;5084995;28;20456;-94
2021/10/17 04:30:24;;;;;;;73.37;15.70;;;;;;;;;;5085262;28;20439;-93
2021/10/17 04:32:51;;;;;;;73.37;16.87;;;;;;;;;;5083022;28;20452;-94
2021/10/17 04:35:17;;;;;;;74.20;17.40;;;;;;;;;;5083515;28;20443;-95
2021/10/17 04:37:44;;;;;;;75.10;16.03;;;;;;;;;;5084493;28;20932;-95
2021/10/17 04:40:11;;;;;;;72.97;16.30;;;;;;;;;;5091075;28;20448;-94
2021/10/17 04:42:37;;;;;;;75.17;16.20;;;;;;;;;;5082036;28;20459;-95
2021/10/17 04:45:04;;;;;;;78.23;16.67;;;;;;;;;;5082428;28;20444;-94
2021/10/17 04:47:32;;;;;;;75.30;17.10;;;;;;;;;;5081591;28;20456;-94
2021/10/17 04:49:59;;;;;;;77.57;17.23;;;;;;;;;;5081404;28;20491;-93
2021/10/17 04:52:25;;;;;;;74.27;17.23;;;;;;;;;;5082823;28;20451;-96
2021/10/17 04:54:52;;;;;;;78.00;18.33;;;;;;;;;;5082435;28;20505;-93
2021/10/17 04:57:18;;;;;;;74.77;17.23;;;;;;;;;;5084551;28;20467;-94
2021/10/17 04:59:45;;;;;;;76.87;16.30;;;;;;;;;;5084740;28;20459;-95
2021/10/17 05:02:11;;;;;;;75.93;17.90;;;;;;;;;;5084523;28;20452;-93
2021/10/17 05:04:40;;;;;;;80.50;17.90;;;;;;;;;;5084229;28;20485;-93
2021/10/17 05:07:06;;;;;;;76.80;17.30;;;;;;;;;;5082421;28;20478;-95
2021/10/17 05:09:33;;;;;;;77.90;17.73;;;;;;;;;;5094289;28;20521;-94
2021/10/17 05:11:59;;;;;;;79.13;18.60;;;;;;;;;;5089206;28;20441;-94
2021/10/17 05:14:26;;;;;;;80.90;18.77;;;;;;;;;;5082653;28;20516;-94
2021/10/17 05:16:52;;;;;;;79.10;18.70;;;;;;;;;;5081501;28;20502;-94
2021/10/17 05:19:19;;;;;;;76.70;18.23;;;;;;;;;;5080883;28;20437;-95
2021/10/17 05:21:48;;;;;;;77.97;18.57;;;;;;;;;;5082904;28;20469;-94
2021/10/17 05:24:14;;;;;;;81.13;19.50;;;;;;;;;;5080636;28;20486;-94
2021/10/17 05:26:41;;;;;;;77.37;18.23;;;;;;;;;;5083154;28;20513;-95
2021/10/17 05:29:07;;;;;;;76.60;18.37;;;;;;;;;;5082545;28;20489;-93
2021/10/17 05:31:34;;;;;;;76.83;18.70;;;;;;;;;;5082627;28;20444;-94
2021/10/17 05:34:00;;;;;;;86.90;18.60;;;;;;;;;;5081438;28;20480;-94
2021/10/17 05:36:27;;;;;;;78.50;18.90;;;;;;;;;;5082979;28;20545;-94
2021/10/17 05:38:55;;;;;;;79.73;17.97;;;;;;;;;;5082959;28;20459;-94
2021/10/17 05:41:22;;;;;;;79.00;19.40;;;;;;;;;;5083230;28;20444;-94
2021/10/17 05:43:49;;;;;;;80.07;18.90;;;;;;;;;;5082380;28;20454;-95
2021/10/17 05:46:15;;;;;;;78.57;19.10;;;;;;;;;;5082705;28;20936;-95
2021/10/17 05:48:42;;;;;;;78.47;18.60;;;;;;;;;;5082886;28;20482;-95
2021/10/17 05:51:08;;;;;;;77.40;18.80;;;;;;;;;;5082643;28;20931;-95
2021/10/17 05:53:35;;;;;;;74.40;17.90;;;;;;;;;;5084875;28;20447;-95
2021/10/17 05:56:03;;;;;;;78.30;18.17;;;;;;;;;;5102218;28;20466;-95
2021/10/17 05:58:29;;;;;;;76.50;18.50;;;;;;;;;;5097486;28;20851;-96
2021/10/17 06:00:56;;;;;;;79.03;18.60;;;;;;;;;;5084353;28;20456;-95
2021/10/17 06:03:24;;;;;;;78.73;18.50;;;;;;;;;;5084411;28;21151;-95
2021/10/17 06:05:50;;;;;;;77.17;19.20;;;;;;;;;;5083422;28;20450;-95
2021/10/17 06:08:18;;;;;;;77.37;18.73;;;;;;;;;;5079791;28;20456;-95
2021/10/17 06:10:45;;;;;;;80.27;19.13;;;;;;;;;;5085063;28;20536;-94
2021/10/17 06:13:13;;;;;;;79.87;18.43;;;;;;;;;;5082767;28;20454;-93
2021/10/17 06:15:40;;;;;;;75.77;18.40;;;;;;;;;;5082563;28;20505;-96
2021/10/17 06:18:06;;;;;;;79.20;19.97;;;;;;;;;;5081612;28;20456;-94
2021/10/17 06:20:33;;;;;;;78.27;19.63;;;;;;;;;;5082153;28;20467;-94
2021/10/17 06:22:59;;;;;;;80.70;21.23;;;;;;;;;;5082153;28;20441;-94
2021/10/17 06:25:28;;;;;;;81.97;20.80;;;;;;;;;;5082606;28;20458;-95
2021/10/17 06:27:55;;;;;;;79.10;19.97;;;;;;;;;;5083045;28;20452;-95
2021/10/17 06:30:24;;;;;;;76.80;18.47;;;;;;;;;;5084263;28;20490;-95
2021/10/17 06:33:05;;;;;;;82.20;19.63;;;;;;;;;;5083014;28;20455;-94
2021/10/17 06:35:32;;;;;;;78.90;18.10;;;;;;;;;;5082256;28;20454;-93
2021/10/17 06:37:58;;;;;;;77.47;17.90;;;;;;;;;;5082235;28;20475;-96
2021/10/17 06:40:26;;;;;;;79.10;18.63;;;;;;;;;;5083804;28;20527;-95
2021/10/17 06:42:52;;;;;;;80.30;18.43;;;;;;;;;;5077718;28;20462;-94
2021/10/17 06:45:19;;;;;;;79.23;18.10;;;;;;;;;;5075850;28;20444;-95
2021/10/17 06:47:47;;;;;;;80.03;19.40;;;;;;;;;;5079316;28;20459;-94
2021/10/17 06:50:17;;;;;;;76.77;18.27;;;;;;;;;;5080729;28;20492;-94
2021/10/17 06:52:44;;;;;;;77.93;17.37;;;;;;;;;;5081046;28;20447;-95
2021/10/17 06:55:10;;;;;;;75.77;17.87;;;;;;;;;;5079887;28;20528;-95
2021/10/17 06:57:37;;;;;;;79.33;19.03;;;;;;;;;;5081335;28;20536;-94
2021/10/17 07:00:04;;;;;;;76.33;18.80;;;;;;;;;;5079470;28;20452;-94
2021/10/17 07:02:37;;;;;;;77.47;18.37;;;;;;;;;;5080627;28;20451;-95
2021/10/17 07:05:06;;;;;;;79.70;20.10;;;;;;;;;;5081814;28;20457;-96
2021/10/17 07:07:33;;;;;;;76.60;19.30;;;;;;;;;;5082933;28;20453;-94
2021/10/17 07:10:00;;;;;;;77.47;18.80;;;;;;;;;;5099162;28;20492;-96
2021/10/17 07:12:26;;;;;;;76.13;17.83;;;;;;;;;;5105410;28;20781;-94
2021/10/17 07:14:53;;;;;;;76.20;18.33;;;;;;;;;;5091294;28;20441;-95
2021/10/17 07:17:20;;;;;;;77.80;18.80;;;;;;;;;;5083662;28;20504;-96
2021/10/17 07:19:46;;;;;;;78.40;18.90;;;;;;;;;;5082927;28;20473;-95
2021/10/17 07:22:14;;;;;;;76.60;18.53;;;;;;;;;;5085604;28;20453;-95
2021/10/17 07:24:41;;;;;;;77.20;19.67;;;;;;;;;;5084725;28;20479;-95
2021/10/17 07:27:07;;;;;;;76.10;17.93;;;;;;;;;;5078118;28;20453;-96
2021/10/17 07:29:34;;;;;;;76.60;18.60;;;;;;;;;;5077662;28;20485;-94
2021/10/17 07:32:01;;;;;;;78.40;19.33;;;;;;;;;;5078101;28;20476;-94
2021/10/17 07:34:27;;;;;;;76.03;18.70;;;;;;;;;;5077901;28;20498;-96
2021/10/17 07:36:54;;;;;;;78.07;20.20;;;;;;;;;;5078044;28;20446;-94
2021/10/17 07:39:22;;;;;;;76.17;19.27;;;;;;;;;;5079578;28;20445;-93
2021/10/17 07:41:49;;;;;;;76.87;18.60;;;;;;;;;;5076323;28;20536;-96
2021/10/17 07:44:16;;;;;;;76.00;19.70;;;;;;;;;;5075642;28;20449;-94
2021/10/17 07:46:42;;;;;;;76.40;18.87;;;;;;;;;;5077849;28;20476;-95
2021/10/17 07:49:13;;;;;;;74.43;17.87;;;;;;;;;;5084833;28;20491;-96
2021/10/17 07:51:39;;;;;;;75.57;17.90;;;;;;;;;;5086643;28;20475;-95
2021/10/17 07:54:08;;;;;;;76.37;19.10;;;;;;;;;;5085768;28;20479;-95
2021/10/17 07:56:36;;;;;;;77.37;18.80;;;;;;;;;;5085470;28;20449;-95
2021/10/17 07:59:02;;;;;;;77.83;19.77;;;;;;;;;;5086119;28;20518;-95
2021/10/17 08:01:29;;;;;;;80.37;18.57;;;;;;;;;;5087618;28;20467;-96
2021/10/17 08:03:56;;;;;;;78.90;19.83;;;;;;;;;;5088158;28;20441;-96
2021/10/17 08:06:23;;;;;;;73.87;18.00;;;;;;;;;;5085392;28;20449;-95
2021/10/17 08:08:50;;;;;;;78.10;19.77;;;;;;;;;;5075116;28;20470;-95
2021/10/17 08:11:17;;;;;;;79.23;18.73;;;;;;;;;;5085729;28;20492;-95
2021/10/17 08:13:45;;;;;;;77.33;17.80;;;;;;;;;;5086224;28;20460;-95
2021/10/17 08:16:14;;;;;;;77.37;16.93;;;;;;;;;;5097404;28;20439;-96
2021/10/17 08:18:41;;;;;;;76.57;17.27;;;;;;;;;;5089284;28;20454;-95
2021/10/17 08:21:07;;;;;;;76.60;17.57;;;;;;;;;;5086336;28;20472;-93
2021/10/17 08:23:34;;;;;;;81.57;18.40;;;;;;;;;;5086894;28;20999;-95
2021/10/17 08:26:00;;;;;;;76.00;18.17;;;;;;;;;;5090855;28;20445;-95
2021/10/17 08:28:28;;;;;;;73.30;17.93;;;;;;;;;;5085508;28;20482;-96
2021/10/17 08:30:58;;;;;;;74.30;17.47;;;;;;;;;;5083897;28;20491;-94
2021/10/17 08:33:26;;;;;;;77.83;17.13;;;;;;;;;;5084185;28;20444;-95
2021/10/17 08:35:53;;;;;;;76.07;17.40;;;;;;;;;;5084171;28;20467;-95
2021/10/17 08:38:19;;;;;;;74.93;17.53;;;;;;;;;;5088995;28;20475;-96
2021/10/17 08:40:47;;;;;;;73.90;17.80;;;;;;;;;;5082701;28;20449;-93
2021/10/17 08:43:14;;;;;;;75.73;18.17;;;;;;;;;;5080640;28;20453;-96
2021/10/17 08:45:41;;;;;;;75.33;17.57;;;;;;;;;;5083647;28;20460;-95
2021/10/17 08:48:09;;;;;;;75.00;18.03;;;;;;;;;;5082596;28;20492;-96
2021/10/17 08:50:36;;;;;;;75.60;17.37;;;;;;;;;;5084456;28;20488;-96
2021/10/17 08:53:02;;;;;;;78.30;17.90;;;;;;;;;;5084026;28;20456;-96
2021/10/17 08:55:29;;;;;;;76.07;17.77;;;;;;;;;;5084085;28;20453;-94
2021/10/17 08:57:55;;;;;;;75.63;18.20;;;;;;;;;;5083821;28;20483;-94
2021/10/17 09:00:25;;;;;;;74.93;17.77;;;;;;;;;;5085584;28;20449;-95
2021/10/17 09:02:52;;;;;;;78.50;17.93;;;;;;;;;;5085307;28;20522;-96
2021/10/17 09:05:32;;;;;;;75.50;16.70;;;;;;;;;;5084417;28;20445;-96
2021/10/17 09:08:04;;;;;;;75.20;17.50;;;;;;;;;;5086052;28;21035;-96
2021/10/17 09:10:31;;;;;;;74.77;17.70;;;;;;;;;;5084266;28;21158;-96
2021/10/17 09:13:08;;;;;;;77.17;17.27;;;;;;;;;;5087181;28;20457;-96
2021/10/17 09:15:36;;;;;;;74.17;16.57;;;;;;;;;;5090534;28;20441;-95
2021/10/17 09:18:13;;;;;;;74.23;16.77;;;;;;;;;;5084337;28;20450;-95
2021/10/17 09:20:58;;;;;;;76.27;17.60;;;;;;;;;;5083515;28;20441;-94
2021/10/17 09:23:32;;;;;;;78.80;18.80;;;;;;;;;;5084117;28;20473;-93
2021/10/17 09:26:00;;;;;;;74.70;18.30;;;;;;;;;;5088088;28;20449;-94
2021/10/17 09:28:27;;;;;;;76.40;17.90;;;;;;;;;;5083095;28;21106;-96
2021/10/17 09:30:57;;;;;;;75.17;18.70;;;;;;;;;;5083926;28;20572;-95
2021/10/17 09:33:24;;;;;;;75.97;18.33;;;;;;;;;;5079107;28;20449;-96
2021/10/17 09:35:51;;;;;;;74.67;18.13;;;;;;;;;;5080650;28;20445;-94
2021/10/17 09:38:20;;;;;;;71.97;16.53;;;;;;;;;;5083215;28;20445;-94
2021/10/17 09:40:47;;;;;;;75.90;18.50;;;;;;;;;;5088051;28;20441;-94
2021/10/17 09:43:22;;;;;;;73.70;16.97;;;;;;;;;;5065686;28;20444;-94
2021/10/17 09:45:48;;;;;;;73.23;18.40;;;;;;;;;;5085119;28;20473;-96
2021/10/17 09:48:30;;;;;;;75.83;18.60;;;;;;;;;;5077311;28;20955;-96
2021/10/17 09:51:00;;;;;;;75.73;19.27;;;;;;;;;;5077744;28;21277;-94
2021/10/17 09:53:41;;;;;;;73.07;18.37;;;;;;;;;;5080630;28;20456;-96
2021/10/17 09:56:07;;;;;;;74.20;17.80;;;;;;;;;;5080109;28;20441;-95
2021/10/17 09:58:34;;;;;;;74.80;17.53;;;;;;;;;;5081679;28;20449;-94
2021/10/17 10:01:01;;;;;;;73.37;16.97;;;;;;;;;;5081086;28;20449;-94
2021/10/17 10:03:27;;;;;;;74.63;18.63;;;;;;;;;;5078584;28;20470;-96
2021/10/17 10:05:54;;;;;;;74.87;18.20;;;;;;;;;;5072384;28;20453;-95
2021/10/17 10:08:22;;;;;;;74.67;18.70;;;;;;;;;;5084995;28;20446;-96
2021/10/17 10:10:51;;;;;;;73.00;18.07;;;;;;;;;;5091887;28;20495;-95
2021/10/17 10:13:18;;;;;;;76.33;18.80;;;;;;;;;;5085450;28;20449;-96
2021/10/17 10:15:46;;;;;;;79.53;19.10;;;;;;;;;;5083414;28;20445;-96
2021/10/17 10:18:23;;;;;;;74.97;19.03;;;;;;;;;;5082373;28;20495;-96
2021/10/17 10:20:55;;;;;;;75.53;18.60;;;;;;;;;;5082999;28;20455;-96
2021/10/17 10:23:23;;;;;;;76.70;18.40;;;;;;;;;;5084041;28;21042;-95
2021/10/17 10:25:51;;;;;;;72.70;18.33;;;;;;;;;;5083575;28;20441;-94
2021/10/17 10:28:19;;;;;;;74.17;19.20;;;;;;;;;;5083816;28;20449;-96
2021/10/17 10:30:47;;;;;;;73.47;18.50;;;;;;;;;;5083590;28;20481;-96
2021/10/17 10:33:19;;;;;;;74.20;18.00;;;;;;;;;;5082641;28;20540;-93
2021/10/17 10:36:09;;;;;;;75.10;18.37;;;;;;;;;;5083997;28;21349;-96
2021/10/17 10:38:54;;;;;;;75.90;18.90;;;;;;;;;;5086621;28;20445;-95
2021/10/17 10:41:26;;;;;;;73.87;18.80;;;;;;;;;;5084596;28;20450;-96
2021/10/17 10:43:53;;;;;;;78.10;18.83;;;;;;;;;;5080747;28;20464;-94
2021/10/17 10:46:27;;;;;;;74.40;18.83;;;;;;;;;;5082558;28;20437;-94
2021/10/17 10:48:54;;;;;;;82.53;20.57;;;;;;;;;;5081249;28;20452;-95
2021/10/17 10:51:35;;;;;;;74.50;18.87;;;;;;;;;;5083526;28;20485;-96
2021/10/17 10:54:02;;;;;;;71.87;16.93;;;;;;;;;;5071119;28;20634;-96
2021/10/17 10:56:55;;;;;;;74.07;19.10;;;;;;;;;;5085626;28;20525;-96
2021/10/17 11:02:18;;;;;;;74.30;19.30;;;;;;;;;;5082908;28;20489;-96
2021/10/17 11:05:00;;;;;;;74.87;18.13;;;;;;;;;;5082153;28;20444;-96
2021/10/17 11:07:45;;;;;;;76.43;18.97;;;;;;;;;;5066749;28;20450;-96
2021/10/17 11:10:41;;;;;;;72.07;18.10;;;;;;;;;;5090684;28;20448;-96
2021/10/17 11:13:26;;;;;;;72.93;17.93;;;;;;;;;;5084006;28;20474;-96
2021/10/17 11:15:53;;;;;;;72.53;18.03;;;;;;;;;;5087020;28;21095;-96
2021/10/17 11:18:19;;;;;;;73.30;18.70;;;;;;;;;;5084405;28;20527;-96
2021/10/17 11:20:47;;;;;;;76.60;20.40;;;;;;;;;;5082684;28;20446;-94
2021/10/17 11:23:17;;;;;;;76.03;21.00;;;;;;;;;;5084458;28;20492;-95
2021/10/17 11:25:52;;;;;;;76.53;20.70;;;;;;;;;;5088516;28;20607;-95
2021/10/17 11:28:20;;;;;;;75.73;18.90;;;;;;;;;;5086153;28;20459;-95
2021/10/17 11:30:47;;;;;;;77.70;19.17;;;;;;;;;;5085926;28;20484;-96
2021/10/17 11:33:18;;;;;;;76.23;19.90;;;;;;;;;;5086198;28;20479;-96
2021/10/17 11:35:44;;;;;;;78.70;21.80;;;;;;;;;;5085755;28;20445;-94
2021/10/17 11:38:11;;;;;;;74.97;20.13;;;;;;;;;;5087208;28;20448;-96
2021/10/17 11:40:38;;;;;;;75.77;19.50;;;;;;;;;;5086491;28;20440;-96
2021/10/17 11:43:06;;;;;;;75.77;19.57;;;;;;;;;;5084321;28;20445;-96
2021/10/17 11:45:35;;;;;;;76.90;20.10;;;;;;;;;;5084541;28;20444;-96
2021/10/17 11:48:02;;;;;;;77.33;20.50;;;;;;;;;;5087808;28;20483;-95
2021/10/17 11:50:30;;;;;;;77.87;20.63;;;;;;;;;;5086475;28;20487;-95
2021/10/17 11:53:08;;;;;;;74.03;19.83;;;;;;;;;;5088426;28;20456;-96
2021/10/17 11:55:36;;;;;;;75.80;19.60;;;;;;;;;;5086086;28;20468;-94
2021/10/17 11:58:04;;;;;;;74.43;18.13;;;;;;;;;;5087447;28;20490;-96
2021/10/17 12:00:31;;;;;;;74.37;17.87;;;;;;;;;;5088948;28;20472;-95
2021/10/17 12:02:59;;;;;;;76.60;19.70;;;;;;;;;;5088767;28;20459;-94
2021/10/17 12:05:27;;;;;;;74.60;19.20;;;;;;;;;;5087151;28;20441;-95
2021/10/17 12:07:56;;;;;;;78.60;20.40;;;;;;;;;;5085897;28;20450;-95
2021/10/17 12:10:22;;;;;;;77.13;20.30;;;;;;;;;;5102965;28;20440;-93
2021/10/17 12:12:49;;;;;;;77.63;20.10;;;;;;;;;;5105585;28;20440;-95
2021/10/17 12:15:16;;;;;;;73.17;19.27;;;;;;;;;;5105809;28;20468;-95
2021/10/17 12:17:43;;;;;;;75.90;20.23;;;;;;;;;;5104933;28;20452;-96
2021/10/17 12:20:14;;;;;;;75.07;19.93;;;;;;;;;;5105019;28;20444;-95
2021/10/17 12:22:41;;;;;;;74.40;19.50;;;;;;;;;;5086146;28;20532;-95
2021/10/17 12:25:08;;;;;;;73.30;19.53;;;;;;;;;;5086122;28;20485;-95
2021/10/17 12:27:36;;;;;;;75.80;19.87;;;;;;;;;;5085673;28;20445;-94
2021/10/17 12:30:06;;;;;;;75.57;20.63;;;;;;;;;;5085950;28;20467;-96
2021/10/17 12:32:43;;;;;;;76.20;19.00;;;;;;;;;;5085020;28;20499;-96
2021/10/17 12:35:30;;;;;;;82.07;20.47;;;;;;;;;;5084650;28;20457;-96
2021/10/17 12:38:05;;;;;;;75.40;18.50;;;;;;;;;;5082602;28;20429;-96
2021/10/17 12:40:32;;;;;;;75.77;20.50;;;;;;;;;;5089610;28;20464;-94
2021/10/17 12:43:00;;;;;;;81.50;22.07;;;;;;;;;;5086131;28;20471;-94
2021/10/17 12:45:28;;;;;;;77.03;21.40;;;;;;;;;;5086416;28;20483;-94
2021/10/17 12:47:54;;;;;;;78.17;20.93;;;;;;;;;;5062206;28;20453;-93
2021/10/17 12:50:24;;;;;;;76.90;20.20;;;;;;;;;;5060945;28;20523;-94
2021/10/17 12:52:54;;;;;;;76.40;21.13;;;;;;;;;;5083211;28;20799;-95
2021/10/17 12:55:22;;;;;;;76.73;20.20;;;;;;;;;;5085269;28;20460;-95
2021/10/17 12:58:02;;;;;;;74.60;19.67;;;;;;;;;;5083288;28;20441;-94
2021/10/17 13:00:28;;;;;;;74.73;19.97;;;;;;;;;;5083259;28;21057;-95
2021/10/17 13:03:10;;;;;;;78.73;19.20;;;;;;;;;;5079901;28;20459;-94
2021/10/17 13:05:46;;;;;;;74.90;19.53;;;;;;;;;;5083282;28;20446;-96
2021/10/17 13:08:12;;;;;;;80.00;21.10;;;;;;;;;;5078962;28;20437;-96
2021/10/17 13:10:40;;;;;;;76.60;20.87;;;;;;;;;;5068896;28;20449;-94
2021/10/17 13:13:13;;;;;;;74.90;20.20;;;;;;;;;;5085103;28;20445;-95
2021/10/17 13:15:40;;;;;;;76.30;20.00;;;;;;;;;;5085116;28;20449;-96
2021/10/17 13:18:07;;;;;;;77.70;20.53;;;;;;;;;;5083801;28;21086;-95
2021/10/17 13:20:34;;;;;;;76.93;20.60;;;;;;;;;;5083640;28;20453;-95
2021/10/17 13:23:03;;;;;;;76.57;20.83;;;;;;;;;;5083918;28;20445;-95
2021/10/17 13:25:30;;;;;;;76.10;20.63;;;;;;;;;;5095473;28;20430;-94
2021/10/17 13:27:59;;;;;;;77.80;20.77;;;;;;;;;;5081582;28;20437;-94
2021/10/17 13:30:26;;;;;;;76.10;20.43;;;;;;;;;;5082492;28;20468;-94
2021/10/17 13:32:53;;;;;;;76.23;20.53;;;;;;;;;;5079184;28;20500;-96
2021/10/17 13:35:19;;;;;;;80.80;20.00;;;;;;;;;;5082992;28;20449;-95
2021/10/17 13:37:46;;;;;;;76.53;20.67;;;;;;;;;;5080917;28;20909;-96
2021/10/17 13:40:21;;;;;;;75.10;19.33;;;;;;;;;;5080255;28;20591;-95
2021/10/17 13:48:00;;;;;;;78.77;20.20;;;;;;;;;;5108840;28;20495;-96
2021/10/17 13:50:28;;;;;;;76.90;20.00;;;;;;;;;;5104719;28;20454;-96
2021/10/17 13:52:55;;;;;;;75.63;19.17;;;;;;;;;;5102500;28;20484;-96
2021/10/17 13:55:22;;;;;;;76.20;18.93;;;;;;;;;;5084776;28;21835;-96
2021/10/17 13:57:48;;;;;;;75.03;19.50;;;;;;;;;;5098883;28;20447;-95
2021/10/17 14:00:15;;;;;;;77.07;21.43;;;;;;;;;;5099702;28;20455;-95
2021/10/17 14:02:42;;;;;;;75.70;20.63;;;;;;;;;;5096436;28;20451;-95
2021/10/17 14:05:10;;;;;;;75.07;20.93;;;;;;;;;;5096742;28;20448;-94
2021/10/17 14:07:37;;;;;;;76.90;19.87;;;;;;;;;;5099870;28;20450;-93
2021/10/17 14:10:04;;;;;;;73.57;19.17;;;;;;;;;;5100567;28;20464;-93
2021/10/17 14:12:30;;;;;;;76.60;19.57;;;;;;;;;;5098252;28;20547;-92
2021/10/17 14:14:57;;;;;;;74.00;17.90;;;;;;;;;;5101968;28;20496;-92
2021/10/17 14:17:23;;;;;;;75.97;19.50;;;;;;;;;;5092294;28;20442;-92
2021/10/17 14:19:50;;;;;;;74.50;18.80;;;;;;;;;;5103204;28;20465;-93
2021/10/17 14:22:28;;;;;;;77.03;18.20;;;;;;;;;;5102657;28;20544;-95
2021/10/17 14:24:54;;;;;;;76.70;19.00;;;;;;;;;;5104313;28;20447;-95
2021/10/17 14:27:23;;;;;;;77.20;19.30;;;;;;;;;;5107171;28;20441;-96
2021/10/17 14:29:50;;;;;;;73.70;18.50;;;;;;;;;;5104589;28;20451;-95